createdAt,value
2023-03-22T00:00:17.688Z,46.53
2023-03-22T00:02:48.158Z,49.13
2023-03-22T00:05:17.266Z,43.13
2023-03-22T00:07:45.772Z,46.92
2023-03-22T00:10:14.681Z,43.70
2023-03-22T00:12:43.604Z,44.47
2023-03-22T00:15:13.027Z,38.92
2023-03-22T00:17:42.175Z,35.03
2023-03-22T00:20:13.183Z,34.60
2023-03-22T00:22:41.702Z,42.88
2023-03-22T00:25:11.164Z,44.72
2023-03-22T00:27:40.147Z,41.60
2023-03-22T00:30:10.423Z,44.67
2023-03-22T00:32:40.126Z,40.97
2023-03-22T00:35:09.758Z,40.58
2023-03-22T00:37:40.287Z,41.40
2023-03-22T00:40:13.668Z,38.97
2023-03-22T00:42:43.226Z,36.85
2023-03-22T00:45:14.122Z,46.90
2023-03-22T00:47:43.362Z,45.17
2023-03-22T00:50:12.478Z,45.75
2023-03-22T00:52:42.500Z,38.33
2023-03-22T00:55:11.827Z,44.65
2023-03-22T00:57:40.889Z,43.83
2023-03-22T01:00:13.804Z,43.55
2023-03-22T01:02:43.250Z,45.50
2023-03-22T01:05:17.923Z,47.33
2023-03-22T01:07:50.699Z,40.60
2023-03-22T01:10:20.172Z,40.00
2023-03-22T01:12:49.579Z,36.28
2023-03-22T01:15:18.806Z,46.35
2023-03-22T01:17:47.788Z,38.20
2023-03-22T01:20:16.724Z,45.95
2023-03-22T01:22:45.358Z,49.80
2023-03-22T01:25:15.829Z,50.38
2023-03-22T01:27:44.852Z,49.10
2023-03-22T01:30:14.728Z,50.60
2023-03-22T01:32:43.674Z,48.22
2023-03-22T01:35:13.254Z,48.27
2023-03-22T01:37:43.869Z,46.55
2023-03-22T01:40:15.952Z,45.05
2023-03-22T01:42:46.023Z,43.00
2023-03-22T01:45:42.581Z,45.28
2023-03-22T01:48:26.915Z,45.33
2023-03-22T01:51:05.205Z,46.25
2023-03-22T01:53:43.067Z,47.15
2023-03-22T01:56:13.849Z,48.13
2023-03-22T01:58:42.994Z,47.72
2023-03-22T02:01:13.487Z,48.38
2023-03-22T02:03:57.066Z,44.78
2023-03-22T02:06:30.027Z,46.65
2023-03-22T02:09:12.519Z,41.28
2023-03-22T02:11:45.902Z,51.13
2023-03-22T02:14:44.856Z,49.65
2023-03-22T02:17:43.455Z,55.35
2023-03-22T02:20:53.155Z,51.35
2023-03-22T02:23:44.863Z,49.83
2023-03-22T02:26:51.860Z,53.10
2023-03-22T02:29:30.204Z,48.70
2023-03-22T02:32:27.740Z,51.40
2023-03-22T02:35:25.759Z,50.85
2023-03-22T02:38:45.865Z,52.03
2023-03-22T02:41:19.930Z,35.67
2023-03-22T02:43:59.244Z,45.97
2023-03-22T02:46:32.206Z,55.57
2023-03-22T02:49:06.757Z,52.53
2023-03-22T02:51:39.996Z,50.40
2023-03-22T02:54:12.356Z,53.50
2023-03-22T02:56:47.564Z,53.40
2023-03-22T02:59:19.118Z,56.67
2023-03-22T03:01:50.108Z,54.60
2023-03-22T03:04:21.461Z,51.95
2023-03-22T03:06:52.893Z,53.78
2023-03-22T03:09:22.532Z,55.60
2023-03-22T03:11:54.778Z,51.20
2023-03-22T03:14:26.085Z,56.20
2023-03-22T03:17:08.219Z,53.38
2023-03-22T03:19:40.902Z,55.42
2023-03-22T03:22:24.174Z,53.00
2023-03-22T03:24:59.780Z,58.15
2023-03-22T03:27:33.998Z,55.10
2023-03-22T03:30:06.834Z,57.08
2023-03-22T03:32:42.166Z,59.20
2023-03-22T03:35:22.456Z,56.95
2023-03-22T03:37:53.186Z,38.53
2023-03-22T03:40:24.464Z,61.22
2023-03-22T03:42:56.124Z,59.10
2023-03-22T03:45:26.668Z,58.45
2023-03-22T03:47:59.713Z,51.53
2023-03-22T03:50:29.175Z,56.95
2023-03-22T03:52:58.736Z,59.97
2023-03-22T03:55:28.616Z,59.33
2023-03-22T03:57:58.935Z,60.25
2023-03-22T04:00:27.947Z,59.08
2023-03-22T04:03:32.600Z,61.90
2023-03-22T04:06:13.776Z,55.90
2023-03-22T04:08:53.639Z,63.30
2023-03-22T04:11:26.674Z,64.82
2023-03-22T04:14:01.538Z,63.45
2023-03-22T04:16:30.559Z,66.18
2023-03-22T04:18:59.443Z,65.75
2023-03-22T04:21:28.453Z,66.55
2023-03-22T04:24:03.020Z,66.45
2023-03-22T04:26:37.311Z,67.50
2023-03-22T04:29:24.602Z,65.68
2023-03-22T04:32:00.892Z,65.50
2023-03-22T04:34:43.117Z,66.82
2023-03-22T04:37:14.668Z,63.10
2023-03-22T04:42:57.563Z,45.25
2023-03-22T04:45:50.854Z,55.63
2023-03-22T04:48:28.172Z,58.70
2023-03-22T04:51:04.240Z,53.85
2023-03-22T04:53:40.001Z,51.08
2023-03-22T04:56:12.833Z,71.30
2023-03-22T04:58:44.276Z,59.03
2023-03-22T05:01:17.409Z,67.47
2023-03-22T05:03:48.922Z,66.95
2023-03-22T05:06:22.985Z,54.08
2023-03-22T05:08:59.566Z,62.00
2023-03-22T05:11:28.899Z,45.38
2023-03-22T05:14:20.403Z,62.38
2023-03-22T05:16:50.809Z,67.75
2023-03-22T05:19:22.369Z,58.10
2023-03-22T05:21:58.418Z,60.88
2023-03-22T05:24:40.864Z,61.00
2023-03-22T05:27:15.093Z,64.28
2023-03-22T05:29:45.259Z,58.60
2023-03-22T05:32:25.905Z,61.90
2023-03-22T05:34:57.172Z,55.17
2023-03-22T05:37:37.018Z,56.67
2023-03-22T05:40:10.016Z,46.10
2023-03-22T05:42:43.537Z,49.20
2023-03-22T05:45:19.000Z,53.08
2023-03-22T05:47:53.824Z,50.00
2023-03-22T05:50:24.718Z,50.80
2023-03-22T05:52:53.469Z,47.70
2023-03-22T05:56:01.012Z,34.83
2023-03-22T05:58:33.963Z,44.63
2023-03-22T06:03:51.294Z,42.40
2023-03-22T06:06:32.436Z,33.67
2023-03-22T06:09:17.530Z,31.38
2023-03-22T06:11:51.351Z,31.92
2023-03-22T06:14:20.420Z,36.35
2023-03-22T06:17:14.456Z,32.13
2023-03-22T06:19:45.195Z,31.48
2023-03-22T06:22:16.123Z,28.98
2023-03-22T06:24:46.112Z,24.20
2023-03-22T06:27:21.948Z,25.33
2023-03-22T06:29:51.168Z,29.05
2023-03-22T06:32:26.785Z,20.27
2023-03-22T06:34:58.291Z,22.33
2023-03-22T06:37:27.571Z,19.52
2023-03-22T06:39:57.715Z,24.23
2023-03-22T06:42:28.578Z,19.20
2023-03-22T06:45:08.103Z,21.50
2023-03-22T06:47:40.049Z,24.60
2023-03-22T06:50:17.681Z,24.80
2023-03-22T06:53:06.230Z,21.77
2023-03-22T06:55:37.307Z,25.20
2023-03-22T06:58:25.077Z,22.23
2023-03-22T07:00:54.192Z,19.83
2023-03-22T07:03:25.233Z,17.33
2023-03-22T07:06:05.678Z,16.88
2023-03-22T07:08:37.281Z,17.80
2023-03-22T07:11:08.453Z,14.18
2023-03-22T07:13:37.707Z,16.30
2023-03-22T07:16:12.520Z,16.80
2023-03-22T07:18:45.727Z,14.05
2023-03-22T07:21:16.876Z,18.80
2023-03-22T07:23:50.679Z,18.55
2023-03-22T07:26:21.902Z,18.30
2023-03-22T07:28:51.850Z,15.27
2023-03-22T07:31:23.323Z,19.10
2023-03-22T07:34:01.174Z,16.48
2023-03-22T07:36:35.192Z,18.83
2023-03-22T07:41:37.897Z,14.60
2023-03-22T07:44:42.158Z,9.23
2023-03-22T07:47:30.830Z,14.43
2023-03-22T07:50:32.943Z,16.00
2023-03-22T07:53:06.230Z,15.60
2023-03-22T07:55:34.785Z,13.95
2023-03-22T07:58:03.939Z,16.80
2023-03-22T08:00:33.153Z,10.20
2023-03-22T08:03:23.375Z,17.67
2023-03-22T08:06:07.218Z,16.77
2023-03-22T08:08:38.964Z,18.52
2023-03-22T08:11:08.922Z,12.20
2023-03-22T08:13:38.128Z,16.05
2023-03-22T08:16:10.180Z,18.77
2023-03-22T08:18:39.402Z,20.38
2023-03-22T08:21:09.330Z,16.58
2023-03-22T08:26:42.739Z,16.45
2023-03-22T08:29:18.826Z,15.27
2023-03-22T08:31:49.575Z,14.10
2023-03-22T08:34:18.521Z,17.35
2023-03-22T08:36:47.841Z,17.40
2023-03-22T08:39:18.144Z,15.23
2023-03-22T08:41:57.528Z,17.20
2023-03-22T08:44:28.697Z,17.20
2023-03-22T08:46:57.488Z,16.50
2023-03-22T08:49:27.284Z,15.45
2023-03-22T08:52:07.517Z,17.02
2023-03-22T08:54:58.055Z,16.02
2023-03-22T08:57:59.954Z,19.73
2023-03-22T09:00:52.388Z,15.90
2023-03-22T09:03:26.658Z,17.63
2023-03-22T09:05:56.489Z,11.75
2023-03-22T09:08:26.201Z,12.00
2023-03-22T09:11:04.242Z,14.07
2023-03-22T09:13:34.944Z,17.00
2023-03-22T09:16:06.625Z,14.30
2023-03-22T09:21:12.226Z,10.73
2023-03-22T09:23:48.793Z,12.13
2023-03-22T09:26:22.978Z,9.52
2023-03-22T09:28:53.863Z,17.48
2023-03-22T09:31:23.034Z,15.07
2023-03-22T09:34:04.212Z,14.15
2023-03-22T09:36:34.399Z,16.15
2023-03-22T09:41:42.424Z,15.60
2023-03-22T09:44:15.805Z,15.80
2023-03-22T09:46:47.972Z,11.32
2023-03-22T09:49:21.216Z,13.88
2023-03-22T09:51:51.898Z,10.63
2023-03-22T09:56:55.927Z,15.35
2023-03-22T09:59:32.748Z,15.38
2023-03-22T10:02:04.829Z,16.92
2023-03-22T10:04:46.378Z,13.20
2023-03-22T10:07:23.032Z,15.43
2023-03-22T10:10:00.810Z,12.23
2023-03-22T10:12:33.044Z,14.15
2023-03-22T10:15:06.236Z,13.05
2023-03-22T10:17:38.138Z,16.13
2023-03-22T10:20:09.858Z,15.48
2023-03-22T10:22:41.932Z,15.93
2023-03-22T10:25:11.308Z,17.55
2023-03-22T10:27:41.678Z,16.63
2023-03-22T10:32:56.668Z,15.13
2023-03-22T10:35:27.051Z,12.98
2023-03-22T10:37:57.289Z,14.55
2023-03-22T10:40:28.748Z,15.60
2023-03-22T10:43:03.577Z,15.75
2023-03-22T10:45:35.555Z,12.55
2023-03-22T10:48:07.341Z,14.38
2023-03-22T10:50:38.258Z,16.27
2023-03-22T10:53:08.474Z,16.35
2023-03-22T10:55:41.373Z,13.85
2023-03-22T10:58:17.197Z,15.10
2023-03-22T11:00:49.398Z,13.63
2023-03-22T11:03:29.780Z,14.45
2023-03-22T11:06:03.519Z,13.38
2023-03-22T11:08:40.635Z,14.23
2023-03-22T11:11:16.342Z,14.57
2023-03-22T11:13:52.228Z,14.68
2023-03-22T11:16:21.586Z,12.23
2023-03-22T11:18:50.778Z,12.10
2023-03-22T11:21:21.320Z,14.88
2023-03-22T11:23:56.493Z,12.25
2023-03-22T11:26:35.901Z,14.65
2023-03-22T11:29:13.994Z,8.45
2023-03-22T11:31:58.906Z,13.15
2023-03-22T11:34:30.876Z,13.18
2023-03-22T11:37:01.657Z,11.60
2023-03-22T11:39:31.143Z,14.90
2023-03-22T11:42:01.688Z,10.60
2023-03-22T11:44:34.695Z,11.77
2023-03-22T11:47:04.625Z,9.57
2023-03-22T11:49:40.517Z,11.47
2023-03-22T11:52:11.542Z,12.95
2023-03-22T11:54:42.425Z,14.50
2023-03-22T11:57:17.181Z,13.98
2023-03-22T11:59:54.858Z,13.90
2023-03-22T12:02:25.483Z,10.35
2023-03-22T12:07:26.986Z,13.32
2023-03-22T12:10:00.520Z,12.27
2023-03-22T12:12:32.737Z,11.43
2023-03-22T12:15:06.857Z,12.13
2023-03-22T12:17:38.992Z,10.77
2023-03-22T12:20:19.398Z,10.85
2023-03-22T12:22:52.844Z,12.45
2023-03-22T12:25:23.769Z,9.23
2023-03-22T12:27:55.766Z,9.38
2023-03-22T12:30:28.611Z,8.38
2023-03-22T12:33:01.739Z,9.48
2023-03-22T12:35:33.197Z,9.57
2023-03-22T12:38:09.051Z,11.35
2023-03-22T12:40:40.255Z,10.52
2023-03-22T12:43:14.871Z,7.57
2023-03-22T12:45:49.172Z,10.65
2023-03-22T12:48:20.919Z,10.80
2023-03-22T12:50:52.596Z,10.82
2023-03-22T12:53:21.921Z,10.95
2023-03-22T12:55:51.310Z,10.30
2023-03-22T12:58:22.264Z,9.18
2023-03-22T13:00:55.174Z,9.95
2023-03-22T13:03:29.519Z,7.65
2023-03-22T13:06:03.784Z,10.40
2023-03-22T13:09:18.096Z,9.85
2023-03-22T13:11:48.827Z,9.32
2023-03-22T13:14:56.187Z,11.95
2023-03-22T13:17:45.424Z,12.02
2023-03-22T13:20:41.366Z,11.50
2023-03-22T13:23:27.622Z,12.43
2023-03-22T13:26:05.190Z,10.68
2023-03-22T13:28:38.344Z,12.00
2023-03-22T13:31:08.115Z,10.35
2023-03-22T13:33:38.972Z,9.85
2023-03-22T13:36:09.938Z,10.65
2023-03-22T13:38:42.995Z,12.63
2023-03-22T13:41:22.699Z,10.23
2023-03-22T13:43:52.652Z,10.52
2023-03-22T13:49:34.322Z,11.40
2023-03-22T13:52:03.741Z,12.25
2023-03-22T13:54:38.843Z,11.85
2023-03-22T13:57:17.671Z,8.50
2023-03-22T14:00:11.251Z,10.70
2023-03-22T14:02:43.257Z,10.32
2023-03-22T14:05:18.066Z,10.10
2023-03-22T14:07:49.484Z,7.38
2023-03-22T14:10:21.649Z,10.85
2023-03-22T14:12:53.607Z,11.63
2023-03-22T14:15:25.078Z,12.57
2023-03-22T14:17:57.672Z,10.80
2023-03-22T14:20:32.373Z,11.20
